sensor_id;sensor_type;location;lat;lon;timestamp;pressure;altitude;pressure_sealevel;temperature;humidity
31299;BME280;17927;52.350;13.402;2022-12-18T00:01:20;102891.34;;;0.01;54.52
31299;BME280;17927;52.350;13.402;2022-12-18T00:03:47;102892.25;;;-0.01;54.52
31299;BME280;17927;52.350;13.402;2022-12-18T00:06:12;102892.25;;;-0.01;54.72
31299;BME280;17927;52.350;13.402;2022-12-18T00:08:39;102903.75;;;0.02;54.65
31299;BME280;17927;52.350;13.402;2022-12-18T00:11:05;102890.41;;;0.03;54.59
31299;BME280;17927;52.350;13.402;2022-12-18T00:13:30;102892.19;;;0.04;54.62
31299;BME280;17927;52.350;13.402;2022-12-18T00:16:07;102892.13;;;0.07;54.54
31299;BME280;17927;52.350;13.402;2022-12-18T00:18:33;102899.19;;;0.10;54.59
31299;BME280;17927;52.350;13.402;2022-12-18T00:21:00;102900.03;;;0.12;54.61
31299;BME280;17927;52.350;13.402;2022-12-18T00:23:26;102899.13;;;0.13;54.42
31299;BME280;17927;52.350;13.402;2022-12-18T00:25:52;102889.44;;;0.10;54.57
31299;BME280;17927;52.350;13.402;2022-12-18T00:28:17;102892.06;;;0.12;54.56
31299;BME280;17927;52.350;13.402;2022-12-18T00:30:42;102896.47;;;0.13;54.30
31299;BME280;17927;52.350;13.402;2022-12-18T00:33:07;102892.91;;;0.14;54.64
31299;BME280;17927;52.350;13.402;2022-12-18T00:35:33;102879.63;;;0.14;54.41
31299;BME280;17927;52.350;13.402;2022-12-18T00:37:58;102881.34;;;0.18;54.46
31299;BME280;17927;52.350;13.402;2022-12-18T00:40:23;102866.28;;;0.17;54.33
31299;BME280;17927;52.350;13.402;2022-12-18T00:42:48;102884.00;;;0.18;54.30
31299;BME280;17927;52.350;13.402;2022-12-18T00:45:32;102881.44;;;0.13;54.21
31299;BME280;17927;52.350;13.402;2022-12-18T00:47:58;102887.69;;;0.09;54.51
31299;BME280;17927;52.350;13.402;2022-12-18T00:50:24;102888.56;;;0.08;54.25
31299;BME280;17927;52.350;13.402;2022-12-18T00:52:50;102887.75;;;0.05;54.04
31299;BME280;17927;52.350;13.402;2022-12-18T00:55:16;102889.50;;;0.04;54.31
31299;BME280;17927;52.350;13.402;2022-12-18T00:57:41;102886.00;;;0.04;54.19
31299;BME280;17927;52.350;13.402;2022-12-18T01:00:11;102880.69;;;0.04;54.16
31299;BME280;17927;52.350;13.402;2022-12-18T01:02:36;102881.59;;;0.01;54.29
31299;BME280;17927;52.350;13.402;2022-12-18T01:05:02;102883.38;;;0.01;54.21
31299;BME280;17927;52.350;13.402;2022-12-18T01:07:27;102888.69;;;0.01;54.10
31299;BME280;17927;52.350;13.402;2022-12-18T01:09:52;102878.09;;;-0.03;54.19
31299;BME280;17927;52.350;13.402;2022-12-18T01:12:17;102884.34;;;-0.05;54.13
31299;BME280;17927;52.350;13.402;2022-12-18T01:14:43;102881.69;;;-0.07;54.29
31299;BME280;17927;52.350;13.402;2022-12-18T01:17:08;102893.19;;;-0.05;54.22
31299;BME280;17927;52.350;13.402;2022-12-18T01:19:33;102885.22;;;-0.05;54.21
31299;BME280;17927;52.350;13.402;2022-12-18T01:21:59;102894.94;;;-0.04;54.19
31299;BME280;17927;52.350;13.402;2022-12-18T01:24:24;102897.59;;;-0.04;54.06
31299;BME280;17927;52.350;13.402;2022-12-18T01:26:50;102905.56;;;-0.04;54.14
31299;BME280;17927;52.350;13.402;2022-12-18T01:29:15;102906.47;;;-0.05;53.95
31299;BME280;17927;52.350;13.402;2022-12-18T01:31:41;102914.47;;;-0.06;54.07
31299;BME280;17927;52.350;13.402;2022-12-18T01:34:06;102921.59;;;-0.08;54.00
31299;BME280;17927;52.350;13.402;2022-12-18T01:36:33;102918.97;;;-0.11;53.79
31299;BME280;17927;52.350;13.402;2022-12-18T01:39:00;102912.78;;;-0.13;54.02
31299;BME280;17927;52.350;13.402;2022-12-18T01:41:28;102919.00;;;-0.13;53.99
31299;BME280;17927;52.350;13.402;2022-12-18T01:49:47;102914.56;;;-0.11;54.11
31299;BME280;17927;52.350;13.402;2022-12-18T01:52:15;102914.47;;;-0.08;54.12
31299;BME280;17927;52.350;13.402;2022-12-18T01:54:40;102914.44;;;-0.05;54.09
31299;BME280;17927;52.350;13.402;2022-12-18T01:57:06;102922.41;;;-0.03;54.06
31299;BME280;17927;52.350;13.402;2022-12-18T01:59:33;102923.28;;;-0.01;54.07
31299;BME280;17927;52.350;13.402;2022-12-18T02:02:01;102919.72;;;0.00;53.79
31299;BME280;17927;52.350;13.402;2022-12-18T02:04:27;102918.81;;;-0.01;54.02
31299;BME280;17927;52.350;13.402;2022-12-18T02:10:15;102925.94;;;-0.03;53.97
31299;BME280;17927;52.350;13.402;2022-12-18T02:13:04;102925.97;;;-0.04;53.91
31299;BME280;17927;52.350;13.402;2022-12-18T02:18:41;102926.16;;;-0.17;53.94
31299;BME280;17927;52.350;13.402;2022-12-18T02:24:11;102931.47;;;-0.18;54.08
31299;BME280;17927;52.350;13.402;2022-12-18T02:26:48;102946.53;;;-0.19;54.13
31299;BME280;17927;52.350;13.402;2022-12-18T02:29:18;102942.13;;;-0.20;53.88
31299;BME280;17927;52.350;13.402;2022-12-18T02:31:48;102943.09;;;-0.30;54.06
31299;BME280;17927;52.350;13.402;2022-12-18T02:34:16;102944.03;;;-0.33;54.09
31299;BME280;17927;52.350;13.402;2022-12-18T02:36:44;102943.13;;;-0.28;53.96
31299;BME280;17927;52.350;13.402;2022-12-18T02:39:12;102940.41;;;-0.27;53.82
31299;BME280;17927;52.350;13.402;2022-12-18T02:41:39;102933.31;;;-0.25;54.04
31299;BME280;17927;52.350;13.402;2022-12-18T02:44:10;102943.91;;;-0.23;53.91
31299;BME280;17927;52.350;13.402;2022-12-18T02:52:07;102948.38;;;-0.27;54.15
31299;BME280;17927;52.350;13.402;2022-12-18T02:54:57;102944.84;;;-0.24;53.98
31299;BME280;17927;52.350;13.402;2022-12-18T02:57:38;102947.44;;;-0.21;53.81
31299;BME280;17927;52.350;13.402;2022-12-18T03:00:10;102943.09;;;-0.30;53.95
31299;BME280;17927;52.350;13.402;2022-12-18T03:02:46;102937.81;;;-0.32;53.87
31299;BME280;17927;52.350;13.402;2022-12-18T03:05:17;102947.56;;;-0.31;54.01
31299;BME280;17927;52.350;13.402;2022-12-18T03:07:51;102953.75;;;-0.28;54.08
31299;BME280;17927;52.350;13.402;2022-12-18T03:10:21;102949.28;;;-0.28;53.90
31299;BME280;17927;52.350;13.402;2022-12-18T03:12:51;102951.13;;;-0.35;54.14
31299;BME280;17927;52.350;13.402;2022-12-18T03:17:51;102950.25;;;-0.32;53.96
31299;BME280;17927;52.350;13.402;2022-12-18T03:20:19;102959.97;;;-0.33;53.91
31299;BME280;17927;52.350;13.402;2022-12-18T03:22:50;102952.00;;;-0.33;53.82
31299;BME280;17927;52.350;13.402;2022-12-18T03:25:17;102957.34;;;-0.34;53.88
31299;BME280;17927;52.350;13.402;2022-12-18T03:27:47;102966.22;;;-0.35;53.92
31299;BME280;17927;52.350;13.402;2022-12-18T03:30:14;102967.06;;;-0.35;53.72
31299;BME280;17927;52.350;13.402;2022-12-18T03:35:29;102954.78;;;-0.42;53.83
31299;BME280;17927;52.350;13.402;2022-12-18T03:37:56;102959.19;;;-0.42;53.93
31299;BME280;17927;52.350;13.402;2022-12-18T03:40:25;102957.44;;;-0.43;53.74
31299;BME280;17927;52.350;13.402;2022-12-18T03:43:02;102951.25;;;-0.46;53.96
31299;BME280;17927;52.350;13.402;2022-12-18T03:45:34;102961.03;;;-0.46;54.26
31299;BME280;17927;52.350;13.402;2022-12-18T03:48:29;102956.56;;;-0.46;53.90
31299;BME280;17927;52.350;13.402;2022-12-18T03:50:59;102949.50;;;-0.47;54.02
31299;BME280;17927;52.350;13.402;2022-12-18T03:53:53;102953.91;;;-0.44;53.98
31299;BME280;17927;52.350;13.402;2022-12-18T03:56:22;102947.72;;;-0.44;54.11
31299;BME280;17927;52.350;13.402;2022-12-18T03:58:49;102946.81;;;-0.42;53.99
31299;BME280;17927;52.350;13.402;2022-12-18T04:01:16;102954.78;;;-0.43;53.97
31299;BME280;17927;52.350;13.402;2022-12-18T04:03:44;102952.13;;;-0.43;53.73
31299;BME280;17927;52.350;13.402;2022-12-18T04:06:11;102959.22;;;-0.46;53.77
31299;BME280;17927;52.350;13.402;2022-12-18T04:08:37;102953.06;;;-0.46;53.81
31299;BME280;17927;52.350;13.402;2022-12-18T04:11:05;102956.59;;;-0.47;53.77
31299;BME280;17927;52.350;13.402;2022-12-18T04:13:35;102955.72;;;-0.49;53.99
31299;BME280;17927;52.350;13.402;2022-12-18T04:16:01;102953.09;;;-0.51;54.05
31299;BME280;17927;52.350;13.402;2022-12-18T04:18:26;102958.41;;;-0.51;53.88
31299;BME280;17927;52.350;13.402;2022-12-18T04:20:52;102960.19;;;-0.50;54.02
31299;BME280;17927;52.350;13.402;2022-12-18T04:23:17;102964.56;;;-0.47;54.07
31299;BME280;17927;52.350;13.402;2022-12-18T04:25:42;102965.50;;;-0.50;53.70
31299;BME280;17927;52.350;13.402;2022-12-18T04:28:07;102968.19;;;-0.53;53.70
31299;BME280;17927;52.350;13.402;2022-12-18T04:30:33;102972.63;;;-0.55;53.82
31299;BME280;17927;52.350;13.402;2022-12-18T04:32:58;102979.72;;;-0.55;53.98
31299;BME280;17927;52.350;13.402;2022-12-18T04:35:23;102976.13;;;-0.54;54.01
31299;BME280;17927;52.350;13.402;2022-12-18T04:37:49;102975.28;;;-0.55;53.91
31299;BME280;17927;52.350;13.402;2022-12-18T04:40:14;102969.94;;;-0.53;53.89
31299;BME280;17927;52.350;13.402;2022-12-18T04:42:40;102986.75;;;-0.53;53.82
31299;BME280;17927;52.350;13.402;2022-12-18T04:45:06;102981.44;;;-0.50;53.94
31299;BME280;17927;52.350;13.402;2022-12-18T04:47:31;102984.06;;;-0.48;53.72
31299;BME280;17927;52.350;13.402;2022-12-18T04:49:57;102991.16;;;-0.50;53.89
31299;BME280;17927;52.350;13.402;2022-12-18T04:52:22;102993.91;;;-0.56;53.54
31299;BME280;17927;52.350;13.402;2022-12-18T04:54:47;102986.84;;;-0.60;54.03
31299;BME280;17927;52.350;13.402;2022-12-18T04:57:12;102989.50;;;-0.62;53.94
31299;BME280;17927;52.350;13.402;2022-12-18T04:59:37;102992.16;;;-0.60;54.12
31299;BME280;17927;52.350;13.402;2022-12-18T05:02:03;102994.78;;;-0.59;54.20
31299;BME280;17927;52.350;13.402;2022-12-18T05:04:28;103000.09;;;-0.57;54.08
31299;BME280;17927;52.350;13.402;2022-12-18T05:06:56;102997.41;;;-0.56;54.13
31299;BME280;17927;52.350;13.402;2022-12-18T05:09:21;102995.66;;;-0.55;53.93
31299;BME280;17927;52.350;13.402;2022-12-18T05:11:46;102982.38;;;-0.57;54.00
31299;BME280;17927;52.350;13.402;2022-12-18T05:14:12;102987.69;;;-0.57;53.94
31299;BME280;17927;52.350;13.402;2022-12-18T05:16:37;102987.72;;;-0.58;53.92
31299;BME280;17927;52.350;13.402;2022-12-18T05:19:02;103004.50;;;-0.56;54.26
31299;BME280;17927;52.350;13.402;2022-12-18T05:21:27;103005.34;;;-0.54;54.01
31299;BME280;17927;52.350;13.402;2022-12-18T05:23:53;103008.00;;;-0.54;54.10
31299;BME280;17927;52.350;13.402;2022-12-18T05:26:18;103009.78;;;-0.53;53.99
31299;BME280;17927;52.350;13.402;2022-12-18T05:28:43;102999.16;;;-0.53;54.03
31299;BME280;17927;52.350;13.402;2022-12-18T05:31:09;102991.19;;;-0.52;54.04
31299;BME280;17927;52.350;13.402;2022-12-18T05:33:35;102995.56;;;-0.49;54.12
31299;BME280;17927;52.350;13.402;2022-12-18T05:36:01;103007.06;;;-0.47;54.24
31299;BME280;17927;52.350;13.402;2022-12-18T05:38:28;103009.69;;;-0.46;54.06
31299;BME280;17927;52.350;13.402;2022-12-18T05:40:54;103021.25;;;-0.50;53.99
31299;BME280;17927;52.350;13.402;2022-12-18T05:43:20;103018.66;;;-0.56;54.14
31299;BME280;17927;52.350;13.402;2022-12-18T05:45:49;103031.97;;;-0.57;54.06
31299;BME280;17927;52.350;13.402;2022-12-18T05:48:16;103030.19;;;-0.55;54.16
31299;BME280;17927;52.350;13.402;2022-12-18T05:50:43;103029.31;;;-0.57;54.06
31299;BME280;17927;52.350;13.402;2022-12-18T05:53:10;103032.84;;;-0.58;54.36
31299;BME280;17927;52.350;13.402;2022-12-18T05:55:37;103035.50;;;-0.58;54.16
31299;BME280;17927;52.350;13.402;2022-12-18T05:58:04;103028.44;;;-0.59;54.26
31299;BME280;17927;52.350;13.402;2022-12-18T06:00:30;103031.09;;;-0.61;54.23
31299;BME280;17927;52.350;13.402;2022-12-18T06:02:57;103036.41;;;-0.59;54.24
31299;BME280;17927;52.350;13.402;2022-12-18T06:05:22;103035.50;;;-0.58;54.28
31299;BME280;17927;52.350;13.402;2022-12-18T06:07:47;103038.16;;;-0.55;54.32
31299;BME280;17927;52.350;13.402;2022-12-18T06:10:12;103027.50;;;-0.54;54.32
31299;BME280;17927;52.350;13.402;2022-12-18T06:12:38;103042.53;;;-0.53;54.33
31299;BME280;17927;52.350;13.402;2022-12-18T06:15:03;103042.50;;;-0.50;54.46
31299;BME280;17927;52.350;13.402;2022-12-18T06:17:30;103046.91;;;-0.47;54.33
31299;BME280;17927;52.350;13.402;2022-12-18T06:19:56;103062.81;;;-0.44;54.39
31299;BME280;17927;52.350;13.402;2022-12-18T06:22:21;103061.91;;;-0.41;54.55
31299;BME280;17927;52.350;13.402;2022-12-18T06:24:46;103077.84;;;-0.40;54.45
31299;BME280;17927;52.350;13.402;2022-12-18T06:27:14;103065.41;;;-0.38;54.50
31299;BME280;17927;52.350;13.402;2022-12-18T06:29:40;103055.63;;;-0.36;54.43
31299;BME280;17927;52.350;13.402;2022-12-18T06:32:05;103062.72;;;-0.33;54.49
31299;BME280;17927;52.350;13.402;2022-12-18T06:34:30;103054.72;;;-0.32;54.28
31299;BME280;17927;52.350;13.402;2022-12-18T06:36:56;103062.69;;;-0.32;54.36
31299;BME280;17927;52.350;13.402;2022-12-18T06:39:21;103065.34;;;-0.32;54.44
31299;BME280;17927;52.350;13.402;2022-12-18T06:41:46;103065.38;;;-0.33;54.30
31299;BME280;17927;52.350;13.402;2022-12-18T06:44:11;103071.59;;;-0.34;54.32
31299;BME280;17927;52.350;13.402;2022-12-18T06:46:37;103069.78;;;-0.34;54.52
31299;BME280;17927;52.350;13.402;2022-12-18T06:49:03;103074.19;;;-0.31;54.42
31299;BME280;17927;52.350;13.402;2022-12-18T06:51:28;103079.50;;;-0.31;54.28
31299;BME280;17927;52.350;13.402;2022-12-18T06:53:53;103084.84;;;-0.33;54.07
31299;BME280;17927;52.350;13.402;2022-12-18T06:56:18;103084.84;;;-0.33;54.46
31299;BME280;17927;52.350;13.402;2022-12-18T06:58:44;103094.59;;;-0.35;54.31
31299;BME280;17927;52.350;13.402;2022-12-18T07:01:10;103097.28;;;-0.36;54.30
31299;BME280;17927;52.350;13.402;2022-12-18T07:03:37;103091.06;;;-0.37;54.42
31299;BME280;17927;52.350;13.402;2022-12-18T07:06:03;103091.97;;;-0.38;54.55
31299;BME280;17927;52.350;13.402;2022-12-18T07:08:29;103095.50;;;-0.39;54.52
31299;BME280;17927;52.350;13.402;2022-12-18T07:10:55;103099.06;;;-0.38;54.56
31299;BME280;17927;52.350;13.402;2022-12-18T07:13:21;103101.69;;;-0.37;54.41
31299;BME280;17927;52.350;13.402;2022-12-18T07:15:46;103091.06;;;-0.37;54.44
31299;BME280;17927;52.350;13.402;2022-12-18T07:18:11;103090.19;;;-0.37;54.00
31299;BME280;17927;52.350;13.402;2022-12-18T07:20:36;103097.28;;;-0.38;54.56
31299;BME280;17927;52.350;13.402;2022-12-18T07:23:03;103092.84;;;-0.39;54.60
31299;BME280;17927;52.350;13.402;2022-12-18T07:25:28;103098.19;;;-0.40;54.41
31299;BME280;17927;52.350;13.402;2022-12-18T07:27:54;103095.50;;;-0.39;54.41
31299;BME280;17927;52.350;13.402;2022-12-18T07:30:19;103096.44;;;-0.40;54.60
31299;BME280;17927;52.350;13.402;2022-12-18T07:32:44;103109.66;;;-0.37;54.71
31299;BME280;17927;52.350;13.402;2022-12-18T07:35:10;103088.41;;;-0.37;54.64
31299;BME280;17927;52.350;13.402;2022-12-18T07:37:35;103085.72;;;-0.34;54.63
31299;BME280;17927;52.350;13.402;2022-12-18T07:40:00;103093.69;;;-0.31;54.85
31299;BME280;17927;52.350;13.402;2022-12-18T07:42:26;103099.81;;;-0.27;54.86
31299;BME280;17927;52.350;13.402;2022-12-18T07:44:57;103083.06;;;-0.32;54.91
31299;BME280;17927;52.350;13.402;2022-12-18T07:47:22;103086.56;;;-0.30;54.89
31299;BME280;17927;52.350;13.402;2022-12-18T07:49:48;103090.97;;;-0.26;54.76
31299;BME280;17927;52.350;13.402;2022-12-18T07:52:13;103096.25;;;-0.23;54.74
31299;BME280;17927;52.350;13.402;2022-12-18T07:54:38;103089.13;;;-0.19;54.80
31299;BME280;17927;52.350;13.402;2022-12-18T07:57:05;103096.22;;;-0.17;54.61
31299;BME280;17927;52.350;13.402;2022-12-18T07:59:30;103089.97;;;-0.16;54.87
31299;BME280;17927;52.350;13.402;2022-12-18T08:01:55;103099.69;;;-0.13;54.72
31299;BME280;17927;52.350;13.402;2022-12-18T08:04:21;103094.34;;;-0.11;54.81
31299;BME280;17927;52.350;13.402;2022-12-18T08:06:46;103102.34;;;-0.11;54.75
31299;BME280;17927;52.350;13.402;2022-12-18T08:09:11;103093.50;;;-0.12;54.68
31299;BME280;17927;52.350;13.402;2022-12-18T08:11:37;103105.00;;;-0.11;54.86
31299;BME280;17927;52.350;13.402;2022-12-18T08:14:02;103108.50;;;-0.09;54.69
31299;BME280;17927;52.350;13.402;2022-12-18T08:16:27;103111.19;;;-0.11;54.78
31299;BME280;17927;52.350;13.402;2022-12-18T08:18:53;103100.56;;;-0.11;54.80
31299;BME280;17927;52.350;13.402;2022-12-18T08:21:25;103108.53;;;-0.11;54.39
31299;BME280;17927;52.350;13.402;2022-12-18T08:23:52;103109.41;;;-0.10;54.71
31299;BME280;17927;52.350;13.402;2022-12-18T08:26:18;103112.97;;;-0.11;54.64
31299;BME280;17927;52.350;13.402;2022-12-18T08:28:43;103116.50;;;-0.12;54.98
31299;BME280;17927;52.350;13.402;2022-12-18T08:31:09;103114.75;;;-0.13;54.82
31299;BME280;17927;52.350;13.402;2022-12-18T08:33:35;103099.69;;;-0.14;54.84
31299;BME280;17927;52.350;13.402;2022-12-18T08:36:03;103109.44;;;-0.13;54.97
31299;BME280;17927;52.350;13.402;2022-12-18T08:38:28;103118.28;;;-0.11;54.89
31299;BME280;17927;52.350;13.402;2022-12-18T08:41:00;103108.50;;;-0.09;55.08
31299;BME280;17927;52.350;13.402;2022-12-18T08:43:26;103120.00;;;-0.06;54.90
31299;BME280;17927;52.350;13.402;2022-12-18T08:46:10;103118.16;;;-0.01;55.03
31299;BME280;17927;52.350;13.402;2022-12-18T08:48:36;103122.53;;;0.05;54.97
31299;BME280;17927;52.350;13.402;2022-12-18T08:51:01;103128.69;;;0.09;54.86
31299;BME280;17927;52.350;13.402;2022-12-18T08:53:27;103126.00;;;0.12;55.03
31299;BME280;17927;52.350;13.402;2022-12-18T08:55:52;103137.50;;;0.14;54.70
31299;BME280;17927;52.350;13.402;2022-12-18T08:58:19;103139.25;;;0.17;54.83
31299;BME280;17927;52.350;13.402;2022-12-18T09:00:44;103150.75;;;0.19;54.61
31299;BME280;17927;52.350;13.402;2022-12-18T09:03:12;103146.28;;;0.21;54.75
31299;BME280;17927;52.350;13.402;2022-12-18T09:05:37;103154.28;;;0.22;54.66
31299;BME280;17927;52.350;13.402;2022-12-18T09:08:02;103156.88;;;0.25;54.88
31299;BME280;17927;52.350;13.402;2022-12-18T09:10:27;103163.97;;;0.28;54.73
31299;BME280;17927;52.350;13.402;2022-12-18T09:12:53;103161.28;;;0.29;54.76
31299;BME280;17927;52.350;13.402;2022-12-18T09:15:18;103156.81;;;0.32;54.91
31299;BME280;17927;52.350;13.402;2022-12-18T09:17:43;103165.66;;;0.34;54.88
31299;BME280;17927;52.350;13.402;2022-12-18T09:20:09;103156.75;;;0.36;54.83
31299;BME280;17927;52.350;13.402;2022-12-18T09:22:34;103162.97;;;0.37;54.99
31299;BME280;17927;52.350;13.402;2022-12-18T09:24:59;103164.69;;;0.41;54.98
31299;BME280;17927;52.350;13.402;2022-12-18T09:27:25;103170.88;;;0.43;55.19
31299;BME280;17927;52.350;13.402;2022-12-18T09:29:50;103169.06;;;0.47;54.92
31299;BME280;17927;52.350;13.402;2022-12-18T09:32:15;103161.09;;;0.45;54.93
31299;BME280;17927;52.350;13.402;2022-12-18T09:34:40;103173.50;;;0.46;54.88
31299;BME280;17927;52.350;13.402;2022-12-18T09:37:05;103182.38;;;0.45;54.96
31299;BME280;17927;52.350;13.402;2022-12-18T09:39:31;103164.63;;;0.47;55.10
31299;BME280;17927;52.350;13.402;2022-12-18T09:41:57;103156.59;;;0.50;54.97
31299;BME280;17927;52.350;13.402;2022-12-18T09:44:33;103150.34;;;0.53;55.09
31299;BME280;17927;52.350;13.402;2022-12-18T09:47:23;103142.38;;;0.54;55.00
31299;BME280;17927;52.350;13.402;2022-12-18T09:52:51;103126.50;;;0.45;55.56
31299;BME280;17927;52.350;13.402;2022-12-18T09:55:29;103135.28;;;0.52;55.48
31299;BME280;17927;52.350;13.402;2022-12-18T09:58:02;103136.13;;;0.55;55.12
31299;BME280;17927;52.350;13.402;2022-12-18T10:00:30;103126.34;;;0.57;55.08
31299;BME280;17927;52.350;13.402;2022-12-18T10:03:12;103112.13;;;0.62;55.28
31299;BME280;17927;52.350;13.402;2022-12-18T10:06:01;103101.44;;;0.65;55.21
31299;BME280;17927;52.350;13.402;2022-12-18T10:11:43;103101.44;;;0.65;55.30
31299;BME280;17927;52.350;13.402;2022-12-18T10:14:45;103104.06;;;0.68;55.45
31299;BME280;17927;52.350;13.402;2022-12-18T10:19:52;103103.06;;;0.77;55.47
31299;BME280;17927;52.350;13.402;2022-12-18T10:24:54;103102.88;;;0.89;55.58
31299;BME280;17927;52.350;13.402;2022-12-18T10:27:24;103103.66;;;0.94;55.55
31299;BME280;17927;52.350;13.402;2022-12-18T10:29:49;103098.25;;;1.00;55.57
31299;BME280;17927;52.350;13.402;2022-12-18T10:32:18;103100.00;;;1.03;55.39
31299;BME280;17927;52.350;13.402;2022-12-18T10:34:48;103098.22;;;1.03;55.47
31299;BME280;17927;52.350;13.402;2022-12-18T10:37:17;103085.84;;;1.01;55.25
31299;BME280;17927;52.350;13.402;2022-12-18T10:39:42;103090.25;;;1.02;55.48
31299;BME280;17927;52.350;13.402;2022-12-18T10:42:19;103078.69;;;1.03;55.58
31299;BME280;17927;52.350;13.402;2022-12-18T10:44:45;103071.59;;;1.03;55.77
31299;BME280;17927;52.350;13.402;2022-12-18T10:47:18;103076.03;;;1.04;55.63
31299;BME280;17927;52.350;13.402;2022-12-18T10:49:50;103070.66;;;1.08;55.74
31299;BME280;17927;52.350;13.402;2022-12-18T10:52:19;103066.16;;;1.10;55.72
31299;BME280;17927;52.350;13.402;2022-12-18T10:54:48;103057.22;;;1.14;55.81
31299;BME280;17927;52.350;13.402;2022-12-18T10:59:56;103063.25;;;1.25;55.91
31299;BME280;17927;52.350;13.402;2022-12-18T11:02:34;103048.13;;;1.29;55.85
31299;BME280;17927;52.350;13.402;2022-12-18T11:05:00;103050.72;;;1.30;55.71
31299;BME280;17927;52.350;13.402;2022-12-18T11:07:46;103054.25;;;1.32;55.73
31299;BME280;17927;52.350;13.402;2022-12-18T11:10:17;103043.63;;;1.31;55.69
31299;BME280;17927;52.350;13.402;2022-12-18T11:12:43;103037.41;;;1.32;55.74
31299;BME280;17927;52.350;13.402;2022-12-18T11:15:29;103055.13;;;1.33;55.78
31299;BME280;17927;52.350;13.402;2022-12-18T11:17:55;103057.91;;;1.27;55.85
31299;BME280;17927;52.350;13.402;2022-12-18T11:20:29;103051.69;;;1.26;55.59
31299;BME280;17927;52.350;13.402;2022-12-18T11:22:58;103048.16;;;1.26;55.81
31299;BME280;17927;52.350;13.402;2022-12-18T11:25:24;103043.72;;;1.25;55.79
31299;BME280;17927;52.350;13.402;2022-12-18T11:27:55;103052.63;;;1.24;55.89
31299;BME280;17927;52.350;13.402;2022-12-18T11:30:27;103039.34;;;1.20;55.89
31299;BME280;17927;52.350;13.402;2022-12-18T11:33:09;103054.44;;;1.23;55.84
31299;BME280;17927;52.350;13.402;2022-12-18T11:35:47;103045.53;;;1.23;55.99
31299;BME280;17927;52.350;13.402;2022-12-18T11:38:21;103041.03;;;1.28;56.16
31299;BME280;17927;52.350;13.402;2022-12-18T11:40:58;103050.69;;;1.33;56.09
31299;BME280;17927;52.350;13.402;2022-12-18T11:43:29;103047.06;;;1.38;56.09
31299;BME280;17927;52.350;13.402;2022-12-18T11:46:04;103049.69;;;1.39;55.80
31299;BME280;17927;52.350;13.402;2022-12-18T11:48:36;103053.22;;;1.41;55.84
31299;BME280;17927;52.350;13.402;2022-12-18T11:51:05;103052.31;;;1.42;55.80
31299;BME280;17927;52.350;13.402;2022-12-18T11:53:35;103051.41;;;1.43;55.92
31299;BME280;17927;52.350;13.402;2022-12-18T11:56:16;103055.84;;;1.44;55.75
31299;BME280;17927;52.350;13.402;2022-12-18T11:58:53;103065.59;;;1.45;55.80
31299;BME280;17927;52.350;13.402;2022-12-18T12:01:48;103064.59;;;1.49;55.85
31299;BME280;17927;52.350;13.402;2022-12-18T12:06:58;103069.03;;;1.50;55.72
31299;BME280;17927;52.350;13.402;2022-12-18T12:09:37;103076.16;;;1.50;55.71
31299;BME280;17927;52.350;13.402;2022-12-18T12:12:13;103069.94;;;1.49;55.68
31299;BME280;17927;52.350;13.402;2022-12-18T12:17:50;103064.59;;;1.49;55.55
31299;BME280;17927;52.350;13.402;2022-12-18T12:20:25;103072.63;;;1.48;55.56
31299;BME280;17927;52.350;13.402;2022-12-18T12:23:00;103075.25;;;1.49;55.69
31299;BME280;17927;52.350;13.402;2022-12-18T12:25:44;103073.44;;;1.53;55.78
31299;BME280;17927;52.350;13.402;2022-12-18T12:28:57;103076.97;;;1.55;55.71
31299;BME280;17927;52.350;13.402;2022-12-18T12:34:34;103094.63;;;1.61;55.73
31299;BME280;17927;52.350;13.402;2022-12-18T12:37:08;103093.72;;;1.62;55.82
31299;BME280;17927;52.350;13.402;2022-12-18T12:39:40;103091.88;;;1.64;55.80
31299;BME280;17927;52.350;13.402;2022-12-18T12:42:20;103102.50;;;1.69;55.78
31299;BME280;17927;52.350;13.402;2022-12-18T12:45:17;103102.50;;;1.69;55.66
31299;BME280;17927;52.350;13.402;2022-12-18T12:47:44;103092.69;;;1.71;55.69
31299;BME280;17927;52.350;13.402;2022-12-18T12:50:16;103081.09;;;1.72;55.66
31299;BME280;17927;52.350;13.402;2022-12-18T12:52:46;103073.09;;;1.72;55.55
31299;BME280;17927;52.350;13.402;2022-12-18T12:55:18;103081.06;;;1.73;55.46
31299;BME280;17927;52.350;13.402;2022-12-18T13:00:17;103079.22;;;1.77;55.67
31299;BME280;17927;52.350;13.402;2022-12-18T13:03:06;103066.75;;;1.79;55.55
31299;BME280;17927;52.350;13.402;2022-12-18T13:05:34;103059.63;;;1.79;55.50
31299;BME280;17927;52.350;13.402;2022-12-18T13:08:06;103063.19;;;1.80;55.41
31299;BME280;17927;52.350;13.402;2022-12-18T13:10:37;103056.94;;;1.79;55.28
31299;BME280;17927;52.350;13.402;2022-12-18T13:13:13;103058.75;;;1.79;55.12
31299;BME280;17927;52.350;13.402;2022-12-18T13:15:46;103057.88;;;1.78;55.32
31299;BME280;17927;52.350;13.402;2022-12-18T13:18:16;103055.22;;;1.78;55.33
31299;BME280;17927;52.350;13.402;2022-12-18T13:21:07;103062.31;;;1.78;55.29
31299;BME280;17927;52.350;13.402;2022-12-18T13:23:38;103050.84;;;1.73;55.22
31299;BME280;17927;52.350;13.402;2022-12-18T13:30:58;103047.38;;;1.71;55.31
31299;BME280;17927;52.350;13.402;2022-12-18T13:36:01;103042.00;;;1.72;55.40
31299;BME280;17927;52.350;13.402;2022-12-18T13:38:37;103033.97;;;1.74;55.35
31299;BME280;17927;52.350;13.402;2022-12-18T13:43:45;103045.47;;;1.76;55.21
31299;BME280;17927;52.350;13.402;2022-12-18T13:46:24;103042.84;;;1.74;55.18
31299;BME280;17927;52.350;13.402;2022-12-18T13:49:00;103047.31;;;1.72;55.17
31299;BME280;17927;52.350;13.402;2022-12-18T13:51:28;103042.03;;;1.69;55.20
31299;BME280;17927;52.350;13.402;2022-12-18T13:54:01;103031.44;;;1.67;55.04
31299;BME280;17927;52.350;13.402;2022-12-18T13:56:28;103033.38;;;1.58;55.22